Time;durP1;ratioP1;P1;durP2;ratioP2;P2;SDS_P1;SDS_P2;PMS_P1;PMS_P2;Temp;Humidity;BMP_temperature;BMP_pressure;BME280_temperature;BME280_humidity;BME280_pressure;Samples;Min_cycle;Max_cycle;Signal;HPM_P1;HPM_P2
2023/06/30 00:00:11;;;;;;;8.18;2.00;;;;;;;20.61;55.30;101383.53;5041040;28;20057;-62
2023/06/30 00:02:41;;;;;;;3.10;1.65;;;;;;;20.60;55.31;101401.03;5043114;28;20554;-63
2023/06/30 00:05:10;;;;;;;5.72;2.42;;;;;;;20.59;55.35;101393.94;5042331;28;20060;-62
2023/06/30 00:07:39;;;;;;;4.50;2.15;;;;;;;20.58;55.27;101392.28;5042343;28;20046;-62
2023/06/30 00:10:08;;;;;;;5.75;2.35;;;;;;;20.55;55.46;101385.47;5044838;28;20049;-62
2023/06/30 00:12:36;;;;;;;5.82;2.35;;;;;;;20.52;55.48;101383.28;5043315;28;20041;-63
2023/06/30 00:15:06;;;;;;;3.95;1.75;;;;;;;20.51;55.44;101383.56;5036193;28;20049;-62
2023/06/30 00:17:35;;;;;;;6.65;2.13;;;;;;;20.48;55.45;101379.47;5044494;28;20084;-62
2023/06/30 00:20:05;;;;;;;5.03;2.03;;;;;;;20.46;55.43;101379.75;5044812;28;20050;-63
2023/06/30 00:22:35;;;;;;;8.70;2.00;;;;;;;20.45;55.46;101385.47;5043079;28;20049;-63
2023/06/30 00:25:03;;;;;;;7.38;2.20;;;;;;;20.45;55.13;101386.28;5039557;28;20050;-64
2023/06/30 00:27:31;;;;;;;9.82;2.20;;;;;;;20.45;55.08;101380.00;5043540;28;20075;-63
2023/06/30 00:29:59;;;;;;;6.15;2.05;;;;;;;20.44;55.17;101386.56;5044150;28;20041;-63
2023/06/30 00:32:31;;;;;;;6.47;2.22;;;;;;;20.44;55.16;101381.94;5044227;28;20092;-63
2023/06/30 00:34:59;;;;;;;5.38;1.50;;;;;;;20.43;55.09;101387.66;5042401;28;20049;-63
2023/06/30 00:37:27;;;;;;;4.45;1.88;;;;;;;20.42;54.97;101384.13;5044451;28;20115;-63
2023/06/30 00:39:55;;;;;;;4.50;1.70;;;;;;;20.40;54.92;101375.38;5043379;28;20068;-63
2023/06/30 00:42:23;;;;;;;4.68;1.63;;;;;;;20.40;54.95;101380.03;5035244;28;20049;-63
2023/06/30 00:44:51;;;;;;;3.90;1.95;;;;;;;20.38;54.97;101374.84;5042949;28;20072;-63
2023/06/30 00:47:19;;;;;;;5.85;2.13;;;;;;;20.37;54.98;101377.81;5043723;28;20049;-63
2023/06/30 00:49:48;;;;;;;5.40;1.70;;;;;;;20.36;54.92;101378.91;5043807;28;20056;-63
2023/06/30 00:52:16;;;;;;;4.38;1.85;;;;;;;20.33;54.76;101383.00;5044804;28;20095;-63
2023/06/30 00:54:44;;;;;;;4.22;2.17;;;;;;;20.33;54.77;101384.91;5042096;28;20049;-63
2023/06/30 00:57:11;;;;;;;4.97;1.88;;;;;;;20.32;54.80;101380.53;5043750;28;20061;-63
2023/06/30 00:59:39;;;;;;;4.43;1.77;;;;;;;20.31;54.60;101381.63;5043211;28;20050;-64
2023/06/30 01:02:11;;;;;;;4.32;2.10;;;;;;;20.27;54.55;101386.00;5036859;28;20057;-62
2023/06/30 01:04:56;;;;;;;7.72;2.33;;;;;;;20.27;54.72;101381.38;5043240;28;20045;-63
2023/06/30 01:07:33;;;;;;;5.93;2.00;;;;;;;20.27;54.59;101394.19;5043165;28;20053;-63
2023/06/30 01:10:07;;;;;;;3.92;1.80;;;;;;;20.25;54.71;101397.19;5035540;28;20387;-63
2023/06/30 01:12:35;;;;;;;5.57;2.00;;;;;;;20.23;54.75;101393.91;5043288;28;20080;-64
2023/06/30 01:15:04;;;;;;;5.18;2.05;;;;;;;20.22;54.53;101392.28;5047143;28;20054;-64
2023/06/30 01:17:34;;;;;;;7.15;1.98;;;;;;;20.21;54.63;101390.66;5042797;28;20049;-64
2023/06/30 01:20:06;;;;;;;4.63;2.13;;;;;;;20.20;54.63;101389.00;5037006;28;20049;-64
2023/06/30 01:22:39;;;;;;;5.82;2.10;;;;;;;20.19;54.57;101384.63;5044321;28;20074;-63
2023/06/30 01:25:12;;;;;;;7.03;2.35;;;;;;;20.18;54.44;101382.19;5039010;28;20110;-63
2023/06/30 01:27:41;;;;;;;7.38;2.03;;;;;;;20.17;54.55;101386.00;5037878;28;20514;-63
2023/06/30 01:30:11;;;;;;;5.97;1.80;;;;;;;20.15;54.62;101387.09;5042253;28;20138;-63
2023/06/30 01:32:39;;;;;;;3.47;1.65;;;;;;;20.14;54.38;101380.00;5038241;28;20060;-63
2023/06/30 01:35:09;;;;;;;6.20;1.77;;;;;;;20.13;54.37;101381.09;5042307;28;20071;-63
2023/06/30 01:37:36;;;;;;;7.43;1.98;;;;;;;20.12;54.44;101384.91;5039782;28;20049;-63
2023/06/30 01:40:05;;;;;;;6.18;1.92;;;;;;;20.09;54.48;101374.53;5043187;28;20110;-63
2023/06/30 01:42:34;;;;;;;8.07;2.72;;;;;;;20.09;54.49;101368.25;5029128;28;20101;-63
2023/06/30 01:45:03;;;;;;;7.57;2.30;;;;;;;20.06;54.15;101364.16;5042846;28;20057;-63
2023/06/30 01:47:31;;;;;;;6.78;2.20;;;;;;;20.03;53.86;101367.44;5040879;28;20118;-63
2023/06/30 01:49:59;;;;;;;4.53;2.13;;;;;;;20.00;54.12;101356.25;5044105;28;20081;-63
2023/06/30 01:52:29;;;;;;;6.40;2.20;;;;;;;19.98;54.11;101364.72;5046557;28;20441;-63
2023/06/30 01:54:56;;;;;;;7.60;2.60;;;;;;;19.97;54.07;101357.63;5046764;28;20072;-63
2023/06/30 01:57:24;;;;;;;5.95;1.95;;;;;;;19.97;54.13;101351.34;5041626;28;20041;-63
2023/06/30 01:59:52;;;;;;;4.70;1.70;;;;;;;19.97;54.20;101359.53;5045338;28;20058;-63
2023/06/30 02:02:20;;;;;;;6.82;2.53;;;;;;;19.96;54.15;101357.88;5045759;28;20049;-63
2023/06/30 02:04:48;;;;;;;5.05;2.10;;;;;;;19.93;54.01;101356.53;5047442;28;20045;-63
2023/06/30 02:07:15;;;;;;;9.45;3.05;;;;;;;19.91;54.00;101353.25;5046755;28;20049;-63
2023/06/30 02:09:45;;;;;;;4.72;2.03;;;;;;;19.89;53.72;101355.44;5044486;28;20064;-63
2023/06/30 02:12:16;;;;;;;10.00;2.67;;;;;;;19.85;53.95;101365.25;5046393;28;20045;-63
2023/06/30 02:14:43;;;;;;;7.25;2.20;;;;;;;19.84;53.73;101366.31;5044105;28;20049;-63
2023/06/30 02:17:12;;;;;;;11.20;3.10;;;;;;;19.82;53.82;101365.78;5043238;28;20071;-63
2023/06/30 02:19:39;;;;;;;6.47;2.67;;;;;;;19.82;53.69;101366.59;5046351;28;20042;-63
2023/06/30 02:22:07;;;;;;;4.75;1.60;;;;;;;19.81;53.87;101358.69;5047295;28;20132;-63
2023/06/30 02:24:35;;;;;;;7.47;2.20;;;;;;;19.81;53.80;101367.69;5046799;28;20529;-63
2023/06/30 02:27:08;;;;;;;6.03;2.25;;;;;;;19.81;53.80;101372.31;5037042;28;20053;-63
2023/06/30 02:29:36;;;;;;;6.75;2.20;;;;;;;19.80;53.62;101370.69;5038352;28;20057;-63
2023/06/30 02:32:04;;;;;;;8.52;2.67;;;;;;;19.79;53.79;101372.59;5041912;28;20045;-63
2023/06/30 02:34:32;;;;;;;7.45;2.30;;;;;;;19.76;53.82;101367.69;5046888;28;20053;-63
2023/06/30 02:37:00;;;;;;;3.85;2.15;;;;;;;19.77;53.83;101373.97;5042619;28;20091;-63
2023/06/30 02:39:28;;;;;;;6.10;2.15;;;;;;;19.75;53.82;101378.88;5044747;28;20054;-62
2023/06/30 02:41:56;;;;;;;8.68;1.92;;;;;;;19.73;54.04;101372.84;5039856;28;20072;-63
2023/06/30 02:44:25;;;;;;;4.78;1.85;;;;;;;19.72;54.16;101382.13;5039619;28;20073;-63
2023/06/30 02:46:53;;;;;;;4.60;2.15;;;;;;;19.71;54.20;101388.66;5038186;28;20050;-63
2023/06/30 02:49:21;;;;;;;6.45;2.40;;;;;;;19.70;54.17;101389.75;5042716;28;20042;-63
2023/06/30 02:51:48;;;;;;;6.55;2.40;;;;;;;19.68;54.23;101397.38;5047102;28;20099;-63
2023/06/30 02:54:16;;;;;;;7.93;2.63;;;;;;;19.67;54.11;101396.56;5043898;28;20076;-63
2023/06/30 02:56:44;;;;;;;8.27;2.58;;;;;;;19.65;54.21;101398.75;5045921;28;20080;-63
2023/06/30 02:59:12;;;;;;;5.85;2.65;;;;;;;19.65;54.37;101401.47;5045510;28;20049;-63
2023/06/30 03:01:41;;;;;;;5.15;2.00;;;;;;;19.63;54.38;101402.84;5043750;28;20053;-63
2023/06/30 03:04:10;;;;;;;7.15;2.30;;;;;;;19.62;54.50;101401.19;5044170;28;20108;-63
2023/06/30 03:06:38;;;;;;;6.18;2.00;;;;;;;19.60;54.25;101408.81;5046372;28;20056;-63
2023/06/30 03:09:07;;;;;;;6.45;2.22;;;;;;;19.58;54.30;101398.19;5044778;28;20061;-63
2023/06/30 03:11:35;;;;;;;5.57;2.13;;;;;;;19.58;54.60;101400.09;5046290;28;20049;-63
2023/06/30 03:14:03;;;;;;;5.30;2.83;;;;;;;19.56;54.40;101394.09;5045251;28;20083;-63
2023/06/30 03:16:32;;;;;;;5.65;2.20;;;;;;;19.55;54.24;101396.00;5044473;28;20103;-63
2023/06/30 03:19:01;;;;;;;4.22;2.00;;;;;;;19.55;54.56;101395.19;5044934;28;20054;-63
2023/06/30 03:21:29;;;;;;;4.43;2.28;;;;;;;19.53;54.50;101390.00;5045998;28;20049;-63
2023/06/30 03:23:57;;;;;;;5.10;2.25;;;;;;;19.49;54.43;101384.22;5044217;28;20057;-62
2023/06/30 03:26:24;;;;;;;9.02;2.38;;;;;;;19.49;54.42;101380.69;5044747;28;20045;-63
2023/06/30 03:28:52;;;;;;;7.13;2.17;;;;;;;19.47;54.31;101370.03;5036839;28;20054;-63
2023/06/30 03:31:20;;;;;;;8.35;2.30;;;;;;;19.46;54.31;101371.13;5045522;28;20076;-63
2023/06/30 03:33:48;;;;;;;5.65;2.35;;;;;;;19.46;54.43;101378.47;5045058;28;20046;-63
2023/06/30 03:36:17;;;;;;;6.93;2.63;;;;;;;19.45;54.22;101382.28;5044603;28;20050;-63
2023/06/30 03:38:45;;;;;;;6.63;2.05;;;;;;;19.43;54.26;101381.75;5042859;28;20245;-63
2023/06/30 03:41:12;;;;;;;4.05;2.28;;;;;;;19.41;54.25;101381.19;5043973;28;20438;-64
2023/06/30 03:43:40;;;;;;;5.70;2.05;;;;;;;19.40;54.31;101379.56;5045564;28;20053;-64
2023/06/30 03:46:09;;;;;;;8.95;2.42;;;;;;;19.36;54.19;101368.38;5044532;28;20111;-63
2023/06/30 03:48:37;;;;;;;5.28;2.20;;;;;;;19.35;54.27;101374.09;5044066;28;20064;-64
2023/06/30 03:51:05;;;;;;;5.30;2.20;;;;;;;19.34;54.22;101375.19;5045381;28;20267;-63
2023/06/30 03:53:34;;;;;;;7.40;2.60;;;;;;;19.33;54.17;101370.81;5044816;28;20125;-62
2023/06/30 03:56:02;;;;;;;6.78;2.63;;;;;;;19.32;54.27;101371.91;5039357;28;20449;-63
2023/06/30 03:58:31;;;;;;;5.95;2.20;;;;;;;19.30;54.16;101369.44;5039644;28;20049;-63
2023/06/30 04:00:58;;;;;;;6.72;2.42;;;;;;;19.29;54.16;101373.25;5042982;28;20050;-63
2023/06/30 04:03:26;;;;;;;8.18;3.20;;;;;;;19.29;54.11;101375.16;5041875;28;20056;-62
2023/06/30 04:05:55;;;;;;;6.40;2.72;;;;;;;19.23;54.43;101368.03;5040338;28;20050;-63
2023/06/30 04:08:23;;;;;;;8.43;2.80;;;;;;;19.25;54.27;101372.16;5039308;28;20046;-63
2023/06/30 04:10:52;;;;;;;5.45;2.28;;;;;;;19.25;54.14;101369.41;5044905;28;20045;-62
2023/06/30 04:13:20;;;;;;;5.43;2.03;;;;;;;19.25;54.02;101371.31;5040826;28;20052;-62
2023/06/30 04:15:48;;;;;;;3.47;1.98;;;;;;;19.24;54.03;101380.59;5043714;28;20068;-63
2023/06/30 04:18:16;;;;;;;10.27;2.80;;;;;;;19.22;53.96;101375.41;5042610;28;20141;-63
2023/06/30 04:20:46;;;;;;;5.43;2.65;;;;;;;19.21;54.01;101372.94;5044416;28;20059;-63
2023/06/30 04:23:14;;;;;;;7.75;2.38;;;;;;;19.19;53.83;101373.22;5044595;28;20050;-63
2023/06/30 04:25:42;;;;;;;7.07;2.45;;;;;;;19.17;53.95;101378.94;5042034;28;20100;-62
2023/06/30 04:28:11;;;;;;;5.97;2.50;;;;;;;19.16;53.92;101385.47;5050528;28;20120;-62
2023/06/30 04:30:39;;;;;;;10.55;2.83;;;;;;;19.14;54.10;101378.63;5042518;28;20053;-63
2023/06/30 04:33:07;;;;;;;6.72;2.53;;;;;;;19.14;54.08;101378.63;5042962;28;20188;-63
2023/06/30 04:35:35;;;;;;;8.30;3.03;;;;;;;19.13;53.98;101390.63;5040178;28;20112;-63
2023/06/30 04:38:02;;;;;;;3.78;2.08;;;;;;;19.13;53.85;101388.72;5042932;28;20088;-63
2023/06/30 04:40:30;;;;;;;5.65;2.38;;;;;;;19.13;53.90;101382.44;5042606;28;20045;-63
2023/06/30 04:43:00;;;;;;;5.72;2.70;;;;;;;19.11;53.90;101380.00;5044016;28;20042;-63
2023/06/30 04:45:29;;;;;;;7.63;2.33;;;;;;;19.10;53.65;101385.69;5043126;28;20042;-63
2023/06/30 04:47:57;;;;;;;7.13;2.42;;;;;;;19.08;53.45;101380.53;5042934;28;20046;-63
2023/06/30 04:50:25;;;;;;;6.10;3.05;;;;;;;19.08;53.60;101380.53;5039478;28;20060;-63
2023/06/30 04:52:53;;;;;;;7.47;2.42;;;;;;;19.07;53.69;101384.31;5043763;28;20072;-63
2023/06/30 04:55:20;;;;;;;6.43;2.30;;;;;;;19.06;53.63;101385.44;5043299;28;20068;-63
2023/06/30 04:57:48;;;;;;;7.78;2.22;;;;;;;19.05;53.56;101380.25;5044006;28;20053;-63
2023/06/30 05:00:17;;;;;;;6.32;2.95;;;;;;;19.04;53.60;101378.63;5041205;28;20049;-63
2023/06/30 05:02:46;;;;;;;7.10;2.50;;;;;;;19.03;53.58;101375.06;5037247;28;20061;-63
2023/06/30 05:05:14;;;;;;;7.13;2.67;;;;;;;19.03;53.66;101383.25;5043977;28;20049;-63
2023/06/30 05:07:42;;;;;;;4.10;2.42;;;;;;;19.03;53.54;101382.44;5041392;28;20510;-63
2023/06/30 05:10:10;;;;;;;5.68;2.30;;;;;;;19.03;53.55;101379.72;5040409;28;20045;-62
2023/06/30 05:12:38;;;;;;;7.40;2.42;;;;;;;19.02;53.59;101378.06;5043956;28;20049;-63
2023/06/30 05:15:07;;;;;;;7.05;2.42;;;;;;;19.02;53.72;101378.88;5043936;28;20111;-63
2023/06/30 05:17:35;;;;;;;7.13;2.50;;;;;;;19.02;53.61;101381.59;5037216;28;20049;-62
2023/06/30 05:20:08;;;;;;;5.22;2.10;;;;;;;19.03;53.61;101377.81;5043350;28;20053;-63
2023/06/30 05:22:36;;;;;;;6.88;2.45;;;;;;;19.05;53.49;101377.53;5043237;28;20053;-64
2023/06/30 05:25:04;;;;;;;7.38;2.72;;;;;;;19.05;53.65;101380.25;5024602;28;20073;-65
2023/06/30 05:27:32;;;;;;;4.45;2.10;;;;;;;19.07;53.66;101375.34;5036333;28;20107;-65
2023/06/30 05:30:00;;;;;;;4.90;2.20;;;;;;;19.07;53.64;101381.59;5031373;28;20076;-64
2023/06/30 05:32:27;;;;;;;5.95;2.30;;;;;;;19.08;53.65;101379.69;5041747;28;20041;-65
2023/06/30 05:34:55;;;;;;;5.20;2.15;;;;;;;19.11;53.77;101384.63;5043492;28;20041;-65
2023/06/30 05:37:24;;;;;;;6.15;2.72;;;;;;;19.11;53.97;101382.72;5042677;28;20049;-63
2023/06/30 05:39:52;;;;;;;7.45;3.03;;;;;;;19.13;53.98;101383.25;5042043;28;20103;-64
2023/06/30 05:42:20;;;;;;;7.00;2.70;;;;;;;19.14;53.84;101374.00;4689657;28;9999874;-64
2023/06/30 05:44:48;;;;;;;7.82;2.30;;;;;;;19.14;53.85;101376.72;5039854;28;20135;-63
2023/06/30 05:47:16;;;;;;;6.07;2.13;;;;;;;19.13;53.78;101372.38;5030545;28;20060;-65
2023/06/30 05:49:43;;;;;;;5.88;3.05;;;;;;;19.21;53.59;101381.13;5039237;28;20054;-63
2023/06/30 05:52:11;;;;;;;7.88;2.38;;;;;;;19.22;53.75;101383.56;5034280;28;20053;-62
2023/06/30 05:54:42;;;;;;;6.75;2.40;;;;;;;19.24;53.66;101372.41;5041832;28;20056;-62
2023/06/30 05:57:09;;;;;;;6.78;2.22;;;;;;;19.25;53.48;101380.31;5032881;28;20046;-62
2023/06/30 05:59:37;;;;;;;7.25;2.00;;;;;;;19.29;53.39;101380.59;5040906;28;20057;-62
2023/06/30 06:02:06;;;;;;;8.57;3.08;;;;;;;19.30;53.17;101383.06;5026444;28;20062;-62
2023/06/30 06:04:33;;;;;;;5.95;1.90;;;;;;;19.32;53.54;101380.88;5040030;28;20057;-64
2023/06/30 06:07:05;;;;;;;5.38;2.10;;;;;;;19.34;53.11;101377.91;5038856;28;20045;-62
2023/06/30 06:09:33;;;;;;;6.82;2.17;;;;;;;19.36;53.27;101381.19;5041738;28;20064;-64
2023/06/30 06:12:03;;;;;;;6.60;2.78;;;;;;;19.39;53.04;101392.38;5040163;28;20072;-68
2023/06/30 06:14:31;;;;;;;6.60;2.10;;;;;;;19.40;52.89;101387.72;5038466;28;20049;-64
2023/06/30 06:16:58;;;;;;;5.03;1.90;;;;;;;19.39;52.19;101386.91;5041230;28;20076;-64
2023/06/30 06:19:26;;;;;;;7.28;2.00;;;;;;;19.39;52.33;101384.19;5043525;28;20084;-64
2023/06/30 06:21:54;;;;;;;11.68;2.58;;;;;;;19.40;52.50;101382.28;5032710;28;20057;-64
2023/06/30 06:24:22;;;;;;;11.20;2.00;;;;;;;19.41;52.38;101379.28;5042501;28;20077;-63
2023/06/30 06:26:50;;;;;;;6.25;2.55;;;;;;;19.43;52.06;101385.28;5041555;28;20053;-64
2023/06/30 06:29:22;;;;;;;5.13;1.60;;;;;;;19.46;52.00;101392.13;5043641;28;20053;-64
2023/06/30 06:31:50;;;;;;;6.05;2.15;;;;;;;19.47;51.88;101397.31;5037137;28;20055;-64
2023/06/30 06:34:18;;;;;;;13.32;1.70;;;;;;;19.48;51.77;101392.66;5043320;28;20139;-63
2023/06/30 06:36:46;;;;;;;4.10;1.52;;;;;;;19.49;52.05;101395.13;5043875;28;20299;-63
2023/06/30 06:39:14;;;;;;;5.00;1.63;;;;;;;19.52;51.99;101398.44;5046929;28;20057;-64
2023/06/30 06:41:42;;;;;;;3.85;1.63;;;;;;;19.55;51.88;101398.72;5045157;28;20046;-64
2023/06/30 06:44:10;;;;;;;5.38;1.80;;;;;;;19.57;52.01;101401.19;5047007;28;20049;-64
2023/06/30 06:46:39;;;;;;;3.97;1.42;;;;;;;19.60;51.96;101398.72;5046065;28;20049;-64
2023/06/30 06:49:07;;;;;;;6.85;1.80;;;;;;;19.61;51.52;101394.91;5045031;28;20053;-68
2023/06/30 06:51:35;;;;;;;3.90;1.50;;;;;;;19.61;50.75;101391.38;5043510;28;20045;-66
2023/06/30 06:54:02;;;;;;;2.97;1.65;;;;;;;19.59;50.38;101401.72;5043437;28;20076;-66
2023/06/30 06:56:30;;;;;;;8.95;2.13;;;;;;;19.58;50.45;101395.47;5046133;28;20049;-67
2023/06/30 06:58:58;;;;;;;3.05;1.30;;;;;;;19.58;50.60;101391.91;5046768;28;20050;-68
2023/06/30 07:01:26;;;;;;;3.88;1.33;;;;;;;19.58;50.74;101392.72;5044427;28;20061;-67
2023/06/30 07:03:55;;;;;;;3.72;1.60;;;;;;;19.58;50.92;101387.28;5046088;28;20053;-68
2023/06/30 07:06:23;;;;;;;4.35;1.88;;;;;;;19.62;50.88;101390.28;5045931;28;20083;-67
2023/06/30 07:08:51;;;;;;;6.57;1.88;;;;;;;19.61;51.09;101388.66;4695698;28;10000289;-66
2023/06/30 07:11:18;;;;;;;4.40;1.27;;;;;;;19.62;50.66;101385.66;5041474;28;20099;-67
2023/06/30 07:13:46;;;;;;;7.65;1.73;;;;;;;19.65;50.73;101384.28;5036724;28;20068;-67
2023/06/30 07:16:17;;;;;;;5.18;1.98;;;;;;;19.65;50.71;101390.56;5043341;28;20050;-68
2023/06/30 07:18:45;;;;;;;5.35;2.20;;;;;;;19.68;50.54;101389.22;5044464;28;20054;-66
2023/06/30 07:21:14;;;;;;;3.97;1.70;;;;;;;19.68;50.59;101389.22;5039868;28;20045;-67
2023/06/30 07:23:42;;;;;;;4.07;1.35;;;;;;;19.71;50.52;101394.13;5041922;28;20053;-67
2023/06/30 07:26:10;;;;;;;3.08;1.38;;;;;;;19.71;50.24;101394.94;5044794;28;20196;-67
2023/06/30 07:28:38;;;;;;;2.50;1.48;;;;;;;19.73;50.07;101397.41;5043587;28;20041;-66
2023/06/30 07:31:06;;;;;;;2.70;1.33;;;;;;;19.72;50.10;101401.22;5043697;28;20059;-66
2023/06/30 07:33:33;;;;;;;2.00;1.27;;;;;;;19.74;49.60;101396.31;5036237;28;20104;-67
2023/06/30 07:36:01;;;;;;;5.65;1.52;;;;;;;19.74;49.40;101399.03;5045410;28;20072;-66
2023/06/30 07:38:30;;;;;;;3.45;1.35;;;;;;;19.74;49.45;101402.59;5044480;28;20118;-67
2023/06/30 07:40:58;;;;;;;4.55;1.30;;;;;;;19.75;49.30;101400.69;5034846;28;20053;-67
2023/06/30 07:43:26;;;;;;;2.67;1.25;;;;;;;19.73;49.40;101398.22;5044157;28;20052;-65
2023/06/30 07:45:54;;;;;;;4.22;1.90;;;;;;;19.72;49.17;101401.22;5045520;28;20569;-65
2023/06/30 07:48:22;;;;;;;3.25;1.88;;;;;;;19.70;49.40;101406.13;5042437;28;20116;-65
2023/06/30 07:50:50;;;;;;;4.65;1.70;;;;;;;19.68;49.03;101400.13;5039646;28;20140;-65
2023/06/30 07:53:38;;;;;;;3.60;1.42;;;;;;;19.66;49.32;101400.38;5042461;28;20053;-66
2023/06/30 07:56:06;;;;;;;6.03;1.67;;;;;;;19.64;49.28;101396.28;5045842;28;20052;-66
2023/06/30 07:58:34;;;;;;;3.10;1.10;;;;;;;19.64;49.19;101396.28;5043844;28;20045;-66
2023/06/30 08:01:02;;;;;;;4.70;1.52;;;;;;;19.62;49.21;101393.84;5045014;28;20053;-66
2023/06/30 08:03:30;;;;;;;3.28;1.35;;;;;;;19.61;49.17;101391.38;5042626;28;20049;-66
2023/06/30 08:05:58;;;;;;;7.32;1.98;;;;;;;19.60;49.01;101397.91;5043029;28;20053;-65
2023/06/30 08:08:27;;;;;;;2.75;1.20;;;;;;;19.60;48.99;101397.91;5040921;28;20050;-65
2023/06/30 08:10:56;;;;;;;6.22;1.48;;;;;;;19.59;48.71;101399.00;5038342;28;20057;-66
2023/06/30 08:13:24;;;;;;;6.30;1.80;;;;;;;19.55;48.40;101400.63;5045857;28;20049;-66
2023/06/30 08:15:52;;;;;;;5.15;1.70;;;;;;;19.53;48.26;101398.16;5043114;28;20073;-66
2023/06/30 08:18:21;;;;;;;3.72;1.35;;;;;;;19.43;48.41;101384.47;5045005;28;20045;-66
2023/06/30 08:21:01;;;;;;;3.45;1.40;;;;;;;19.53;48.53;101390.00;5032541;28;20054;-66
2023/06/30 08:23:30;;;;;;;3.50;1.40;;;;;;;19.54;48.52;101399.81;5044127;28;20045;-66
2023/06/30 08:25:59;;;;;;;4.68;1.52;;;;;;;19.54;48.70;101393.53;5043549;28;20049;-65
2023/06/30 08:28:27;;;;;;;2.67;1.40;;;;;;;19.54;48.76;101397.09;5031585;28;20049;-65
2023/06/30 08:30:54;;;;;;;3.45;1.40;;;;;;;19.54;48.80;101391.63;5044291;28;20075;-65
2023/06/30 08:33:28;;;;;;;6.47;1.50;;;;;;;19.56;48.78;101396.81;5044489;28;20056;-65
2023/06/30 08:36:07;;;;;;;3.65;1.60;;;;;;;19.54;48.93;101386.19;5043894;28;20049;-65
2023/06/30 08:38:35;;;;;;;2.83;1.20;;;;;;;19.47;48.65;101375.50;5044751;28;20049;-65
2023/06/30 08:41:04;;;;;;;3.55;1.60;;;;;;;19.55;48.87;101389.72;5042426;28;20525;-65
2023/06/30 08:43:33;;;;;;;3.28;1.58;;;;;;;19.55;48.34;101389.72;5042090;28;20422;-65
2023/06/30 08:46:04;;;;;;;3.70;1.13;;;;;;;19.54;47.50;101383.44;5037062;28;20119;-65
2023/06/30 08:48:32;;;;;;;5.00;1.45;;;;;;;19.54;47.63;101378.00;5044252;28;20045;-65
2023/06/30 08:51:01;;;;;;;3.65;1.27;;;;;;;19.53;47.58;101368.19;5042503;28;20060;-66
2023/06/30 08:53:31;;;;;;;3.75;1.40;;;;;;;19.49;47.86;101362.41;5043789;28;20565;-65
2023/06/30 08:55:59;;;;;;;4.70;1.02;;;;;;;19.55;47.85;101362.47;5043807;28;20045;-66
2023/06/30 08:58:29;;;;;;;3.75;1.33;;;;;;;19.56;47.76;101366.81;5044446;28;20061;-66
2023/06/30 09:00:57;;;;;;;4.22;1.20;;;;;;;19.55;48.07;101365.19;5043358;28;20049;-66
2023/06/30 09:03:26;;;;;;;2.03;1.05;;;;;;;19.58;48.07;101362.75;5041483;28;20136;-66
2023/06/30 09:05:56;;;;;;;3.78;1.40;;;;;;;19.58;47.77;101360.00;5043438;28;20422;-66
2023/06/30 09:08:27;;;;;;;4.82;1.48;;;;;;;19.59;47.89;101356.19;5037822;28;20045;-66
2023/06/30 09:10:56;;;;;;;2.80;1.30;;;;;;;19.61;47.84;101361.38;5032111;28;20049;-66
2023/06/30 09:13:25;;;;;;;3.85;1.20;;;;;;;19.61;47.92;101355.94;5042453;28;20078;-66
2023/06/30 09:15:56;;;;;;;4.00;1.10;;;;;;;19.63;47.93;101356.47;5042797;28;20046;-65
2023/06/30 09:18:24;;;;;;;1.75;1.10;;;;;;;19.56;47.96;101351.28;5035920;28;20133;-66
2023/06/30 09:20:53;;;;;;;3.65;1.30;;;;;;;19.65;47.78;101357.84;5036653;28;20152;-65
2023/06/30 09:23:21;;;;;;;2.65;0.98;;;;;;;19.65;47.69;101355.13;5040836;28;20079;-66
2023/06/30 09:25:49;;;;;;;2.50;1.33;;;;;;;19.66;47.91;101353.22;5044211;28;20443;-66
2023/06/30 09:28:17;;;;;;;2.05;1.10;;;;;;;19.68;47.52;101351.03;5028711;28;20058;-66
2023/06/30 09:30:46;;;;;;;6.00;1.52;;;;;;;19.68;47.58;101351.84;5043441;28;20175;-66
2023/06/30 09:33:17;;;;;;;4.35;1.33;;;;;;;19.70;47.61;101348.84;5044054;28;20053;-65
2023/06/30 09:35:46;;;;;;;3.33;1.40;;;;;;;19.71;47.64;101356.75;5043188;28;20414;-65
2023/06/30 09:38:17;;;;;;;4.38;1.05;;;;;;;19.73;47.62;101351.03;5041925;28;20077;-66
2023/06/30 09:40:45;;;;;;;2.90;0.95;;;;;;;19.73;47.73;101349.13;5037462;28;20132;-65
2023/06/30 09:43:18;;;;;;;4.32;1.58;;;;;;;19.75;47.51;101348.84;5044018;28;20049;-66
2023/06/30 09:45:47;;;;;;;2.15;1.33;;;;;;;19.75;47.68;101352.41;5036810;28;20069;-66
2023/06/30 09:48:17;;;;;;;1.67;1.02;;;;;;;19.76;47.17;101348.59;5032618;28;20049;-66
2023/06/30 09:50:45;;;;;;;4.65;1.30;;;;;;;19.78;47.17;101356.50;5043755;28;20053;-65
2023/06/30 09:53:19;;;;;;;3.72;1.20;;;;;;;19.71;46.99;101336.84;5043991;28;20136;-65
2023/06/30 09:55:51;;;;;;;2.20;1.30;;;;;;;19.80;46.99;101343.41;5043237;28;20049;-65
2023/06/30 09:58:20;;;;;;;3.72;1.30;;;;;;;19.80;47.11;101352.41;5041953;28;20395;-66
2023/06/30 10:00:51;;;;;;;5.05;1.30;;;;;;;19.81;46.83;101345.88;5042541;28;20076;-65
2023/06/30 10:03:20;;;;;;;4.28;1.40;;;;;;;19.82;46.93;101336.59;5044226;28;20072;-66
2023/06/30 10:05:49;;;;;;;4.07;1.65;;;;;;;19.84;46.87;101349.97;5043274;28;20042;-66
2023/06/30 10:08:17;;;;;;;7.63;2.22;;;;;;;19.86;46.83;101338.78;5042259;28;20077;-66
2023/06/30 10:10:45;;;;;;;3.88;1.58;;;;;;;19.87;46.62;101348.59;5036071;28;20049;-65
2023/06/30 10:13:16;;;;;;;4.32;1.27;;;;;;;19.87;46.46;101343.97;5042964;28;20046;-65
2023/06/30 10:15:45;;;;;;;3.28;1.23;;;;;;;19.89;46.65;101340.97;5045444;28;20046;-66
2023/06/30 10:18:16;;;;;;;2.92;1.13;;;;;;;19.90;46.78;101337.16;5046406;28;20063;-65
2023/06/30 10:20:46;;;;;;;1.95;1.20;;;;;;;19.93;46.79;101345.59;5046656;28;20080;-66
2023/06/30 10:23:19;;;;;;;2.90;0.88;;;;;;;19.95;47.04;101328.97;5044926;28;20540;-66
2023/06/30 10:25:48;;;;;;;1.90;1.15;;;;;;;19.98;47.28;101328.41;5045592;28;20045;-65
2023/06/30 10:28:17;;;;;;;4.38;1.50;;;;;;;20.01;47.32;101317.78;5044186;28;20042;-66
2023/06/30 10:30:45;;;;;;;5.20;2.22;;;;;;;20.06;47.51;101311.50;5046294;28;20053;-66
2023/06/30 10:33:13;;;;;;;1.80;1.10;;;;;;;20.10;47.48;101312.59;5046857;28;20050;-66
2023/06/30 10:35:42;;;;;;;4.53;1.10;;;;;;;20.12;47.54;101315.88;5042633;28;20144;-65
2023/06/30 10:38:12;;;;;;;2.30;1.38;;;;;;;20.14;47.66;101321.88;5045181;28;20049;-66
2023/06/30 10:40:41;;;;;;;5.03;1.40;;;;;;;20.17;48.18;101306.84;5039127;28;20076;-66
2023/06/30 10:43:09;;;;;;;2.38;1.20;;;;;;;20.19;47.85;101313.69;5046564;28;20064;-66
2023/06/30 10:46:05;;;;;;;2.25;1.13;;;;;;;20.21;47.80;101314.22;5039058;28;20069;-66
2023/06/30 10:48:40;;;;;;;6.45;1.40;;;;;;;20.23;47.44;101314.75;5044647;28;20045;-65
2023/06/30 10:51:11;;;;;;;1.88;1.08;;;;;;;20.25;47.67;101317.22;5053845;28;20100;-66
2023/06/30 10:53:43;;;;;;;4.35;1.50;;;;;;;20.26;47.28;101310.66;5044120;28;20132;-66
2023/06/30 10:56:11;;;;;;;2.78;1.02;;;;;;;20.27;47.24;101307.66;5044933;28;20060;-66
2023/06/30 10:58:42;;;;;;;2.33;1.30;;;;;;;20.28;46.68;101311.22;5046008;28;20049;-66
2023/06/30 11:01:10;;;;;;;1.75;1.10;;;;;;;20.27;46.24;101302.19;5044949;28;20053;-66
2023/06/30 11:04:11;;;;;;;4.47;1.63;;;;;;;20.29;46.62;101299.19;5042476;28;20072;-66
2023/06/30 11:06:40;;;;;;;3.17;1.35;;;;;;;20.32;47.08;101295.91;5036880;28;20080;-66
2023/06/30 11:09:11;;;;;;;2.13;1.10;;;;;;;20.37;47.11;101301.38;5033463;28;20060;-66
2023/06/30 11:11:49;;;;;;;7.47;2.03;;;;;;;20.38;46.88;101292.94;5036896;28;20046;-66
2023/06/30 11:14:31;;;;;;;3.60;1.65;;;;;;;20.41;46.96;101286.91;5046176;28;20109;-67
2023/06/30 11:17:04;;;;;;;2.70;1.30;;;;;;;20.44;46.83;101296.47;5044942;28;20101;-67
2023/06/30 11:19:32;;;;;;;3.17;1.33;;;;;;;20.45;46.85;101292.66;5044862;28;20060;-67
2023/06/30 11:22:22;;;;;;;2.72;1.10;;;;;;;20.49;47.12;101284.72;5043056;28;20535;-67
2023/06/30 11:24:51;;;;;;;3.20;1.23;;;;;;;20.52;47.05;101287.72;5043147;28;20049;-66
2023/06/30 11:27:20;;;;;;;2.08;1.00;;;;;;;20.55;47.13;101278.16;5036725;28;20046;-66
2023/06/30 11:29:49;;;;;;;3.88;1.40;;;;;;;20.59;47.19;101284.69;5040370;28;20410;-66
2023/06/30 11:32:18;;;;;;;4.18;1.40;;;;;;;20.59;46.65;101281.97;5045285;28;20072;-67